sensor_id;sensor_type;location;lat;lon;timestamp;temperature;humidity
69359;HTU21D;56520;49.066;8.660;2022-08-23T00:00:33;18.98;58.37
69359;HTU21D;56520;49.066;8.660;2022-08-23T00:02:59;19.01;58.44
69359;HTU21D;56520;49.066;8.660;2022-08-23T00:05:24;19.06;58.80
69359;HTU21D;56520;49.066;8.660;2022-08-23T00:07:50;19.10;58.83
69359;HTU21D;56520;49.066;8.660;2022-08-23T00:10:16;19.12;58.95
69359;HTU21D;56520;49.066;8.660;2022-08-23T00:12:43;19.14;58.79
69359;HTU21D;56520;49.066;8.660;2022-08-23T00:15:11;19.17;58.80
69359;HTU21D;56520;49.066;8.660;2022-08-23T00:17:37;19.16;58.70
69359;HTU21D;56520;49.066;8.660;2022-08-23T00:20:05;19.15;58.68
69359;HTU21D;56520;49.066;8.660;2022-08-23T00:22:32;19.12;58.67
69359;HTU21D;56520;49.066;8.660;2022-08-23T00:24:57;19.09;58.75
69359;HTU21D;56520;49.066;8.660;2022-08-23T00:27:23;19.06;58.84
69359;HTU21D;56520;49.066;8.660;2022-08-23T00:29:51;19.02;58.96
69359;HTU21D;56520;49.066;8.660;2022-08-23T00:32:29;19.00;58.99
69359;HTU21D;56520;49.066;8.660;2022-08-23T00:34:57;18.97;59.09
69359;HTU21D;56520;49.066;8.660;2022-08-23T00:37:24;18.91;59.22
69359;HTU21D;56520;49.066;8.660;2022-08-23T00:39:50;18.87;59.41
69359;HTU21D;56520;49.066;8.660;2022-08-23T00:45:27;18.70;59.70
69359;HTU21D;56520;49.066;8.660;2022-08-23T00:48:13;18.62;59.82
69359;HTU21D;56520;49.066;8.660;2022-08-23T00:50:45;18.61;59.90
69359;HTU21D;56520;49.066;8.660;2022-08-23T00:53:16;18.63;59.86
69359;HTU21D;56520;49.066;8.660;2022-08-23T00:55:45;18.64;59.76
69359;HTU21D;56520;49.066;8.660;2022-08-23T00:58:13;18.67;59.70
69359;HTU21D;56520;49.066;8.660;2022-08-23T01:00:40;18.66;59.76
69359;HTU21D;56520;49.066;8.660;2022-08-23T01:03:08;18.65;59.99
69359;HTU21D;56520;49.066;8.660;2022-08-23T01:06:00;18.61;60.64
69359;HTU21D;56520;49.066;8.660;2022-08-23T01:08:28;18.49;60.44
69359;HTU21D;56520;49.066;8.660;2022-08-23T01:11:00;18.40;60.70
69359;HTU21D;56520;49.066;8.660;2022-08-23T01:13:39;18.35;61.05
69359;HTU21D;56520;49.066;8.660;2022-08-23T01:16:20;18.28;61.12
69359;HTU21D;56520;49.066;8.660;2022-08-23T01:18:48;18.20;61.38
69359;HTU21D;56520;49.066;8.660;2022-08-23T01:21:22;18.14;61.63
69359;HTU21D;56520;49.066;8.660;2022-08-23T01:23:52;18.07;61.83
69359;HTU21D;56520;49.066;8.660;2022-08-23T01:26:20;17.99;61.92
69359;HTU21D;56520;49.066;8.660;2022-08-23T01:28:46;17.95;62.12
69359;HTU21D;56520;49.066;8.660;2022-08-23T01:31:14;17.92;62.15
69359;HTU21D;56520;49.066;8.660;2022-08-23T01:33:41;17.90;62.21
69359;HTU21D;56520;49.066;8.660;2022-08-23T01:36:09;17.90;62.50
69359;HTU21D;56520;49.066;8.660;2022-08-23T01:38:35;17.90;62.74
69359;HTU21D;56520;49.066;8.660;2022-08-23T01:41:01;17.85;62.61
69359;HTU21D;56520;49.066;8.660;2022-08-23T01:43:27;17.81;62.56
69359;HTU21D;56520;49.066;8.660;2022-08-23T01:45:53;17.76;62.84
69359;HTU21D;56520;49.066;8.660;2022-08-23T01:48:20;17.72;62.95
69359;HTU21D;56520;49.066;8.660;2022-08-23T01:50:46;17.66;62.92
69359;HTU21D;56520;49.066;8.660;2022-08-23T01:53:12;17.60;63.11
69359;HTU21D;56520;49.066;8.660;2022-08-23T01:55:39;17.54;63.24
69359;HTU21D;56520;49.066;8.660;2022-08-23T01:58:06;17.49;63.48
69359;HTU21D;56520;49.066;8.660;2022-08-23T02:00:35;17.44;63.51
69359;HTU21D;56520;49.066;8.660;2022-08-23T02:03:01;17.39;63.89
69359;HTU21D;56520;49.066;8.660;2022-08-23T02:05:28;17.36;64.05
69359;HTU21D;56520;49.066;8.660;2022-08-23T02:07:54;17.32;64.07
69359;HTU21D;56520;49.066;8.660;2022-08-23T02:10:20;17.30;64.38
69359;HTU21D;56520;49.066;8.660;2022-08-23T02:12:46;17.25;64.47
69359;HTU21D;56520;49.066;8.660;2022-08-23T02:15:12;17.24;64.65
69359;HTU21D;56520;49.066;8.660;2022-08-23T02:17:38;17.21;64.58
69359;HTU21D;56520;49.066;8.660;2022-08-23T02:20:05;17.19;64.65
69359;HTU21D;56520;49.066;8.660;2022-08-23T02:22:31;17.18;64.77
69359;HTU21D;56520;49.066;8.660;2022-08-23T02:24:57;17.17;64.67
69359;HTU21D;56520;49.066;8.660;2022-08-23T02:27:23;17.15;64.74
69359;HTU21D;56520;49.066;8.660;2022-08-23T02:29:48;17.09;64.86
69359;HTU21D;56520;49.066;8.660;2022-08-23T02:32:15;17.09;64.92
69359;HTU21D;56520;49.066;8.660;2022-08-23T02:34:43;17.07;65.00
69359;HTU21D;56520;49.066;8.660;2022-08-23T02:37:10;17.07;64.99
69359;HTU21D;56520;49.066;8.660;2022-08-23T02:39:36;17.06;65.05
69359;HTU21D;56520;49.066;8.660;2022-08-23T02:42:01;17.04;65.18
69359;HTU21D;56520;49.066;8.660;2022-08-23T02:44:27;17.04;65.23
69359;HTU21D;56520;49.066;8.660;2022-08-23T02:46:55;17.02;65.21
69359;HTU21D;56520;49.066;8.660;2022-08-23T02:49:20;16.98;65.29
69359;HTU21D;56520;49.066;8.660;2022-08-23T02:51:46;16.96;65.32
69359;HTU21D;56520;49.066;8.660;2022-08-23T02:54:11;16.93;65.30
69359;HTU21D;56520;49.066;8.660;2022-08-23T02:56:37;16.88;65.40
69359;HTU21D;56520;49.066;8.660;2022-08-23T02:59:04;16.85;65.46
69359;HTU21D;56520;49.066;8.660;2022-08-23T03:01:36;16.82;65.68
69359;HTU21D;56520;49.066;8.660;2022-08-23T03:04:03;16.80;65.56
69359;HTU21D;56520;49.066;8.660;2022-08-23T03:06:29;16.76;65.67
69359;HTU21D;56520;49.066;8.660;2022-08-23T03:08:55;16.73;65.89
69359;HTU21D;56520;49.066;8.660;2022-08-23T03:11:21;16.70;66.14
69359;HTU21D;56520;49.066;8.660;2022-08-23T03:13:49;16.65;66.28
69359;HTU21D;56520;49.066;8.660;2022-08-23T03:16:15;16.61;66.18
69359;HTU21D;56520;49.066;8.660;2022-08-23T03:18:42;16.59;66.25
69359;HTU21D;56520;49.066;8.660;2022-08-23T03:21:08;16.56;66.32
69359;HTU21D;56520;49.066;8.660;2022-08-23T03:23:35;16.52;66.45
69359;HTU21D;56520;49.066;8.660;2022-08-23T03:26:02;16.49;66.59
69359;HTU21D;56520;49.066;8.660;2022-08-23T03:28:29;16.43;66.59
69359;HTU21D;56520;49.066;8.660;2022-08-23T03:30:55;16.39;66.80
69359;HTU21D;56520;49.066;8.660;2022-08-23T03:33:21;16.36;67.06
69359;HTU21D;56520;49.066;8.660;2022-08-23T03:35:47;16.35;67.27
69359;HTU21D;56520;49.066;8.660;2022-08-23T03:38:13;16.35;67.28
69359;HTU21D;56520;49.066;8.660;2022-08-23T03:40:40;16.31;67.60
69359;HTU21D;56520;49.066;8.660;2022-08-23T03:43:05;16.28;67.55
69359;HTU21D;56520;49.066;8.660;2022-08-23T03:45:31;16.24;67.72
69359;HTU21D;56520;49.066;8.660;2022-08-23T03:47:57;16.22;67.87
69359;HTU21D;56520;49.066;8.660;2022-08-23T03:50:22;16.22;68.04
69359;HTU21D;56520;49.066;8.660;2022-08-23T03:52:48;16.19;68.20
69359;HTU21D;56520;49.066;8.660;2022-08-23T03:55:14;16.16;68.23
69359;HTU21D;56520;49.066;8.660;2022-08-23T03:57:40;16.13;68.32
69359;HTU21D;56520;49.066;8.660;2022-08-23T04:00:08;16.11;68.38
69359;HTU21D;56520;49.066;8.660;2022-08-23T04:02:35;16.11;68.49
69359;HTU21D;56520;49.066;8.660;2022-08-23T04:05:01;16.10;68.55
69359;HTU21D;56520;49.066;8.660;2022-08-23T04:07:26;16.10;68.89
69359;HTU21D;56520;49.066;8.660;2022-08-23T04:09:52;16.05;69.00
69359;HTU21D;56520;49.066;8.660;2022-08-23T04:12:18;16.03;69.12
69359;HTU21D;56520;49.066;8.660;2022-08-23T04:14:44;16.02;69.26
69359;HTU21D;56520;49.066;8.660;2022-08-23T04:17:11;16.00;69.32
69359;HTU21D;56520;49.066;8.660;2022-08-23T04:19:37;15.97;69.52
69359;HTU21D;56520;49.066;8.660;2022-08-23T04:22:02;15.93;69.60
69359;HTU21D;56520;49.066;8.660;2022-08-23T04:24:28;15.91;69.70
69359;HTU21D;56520;49.066;8.660;2022-08-23T04:26:54;15.86;69.83
69359;HTU21D;56520;49.066;8.660;2022-08-23T04:29:19;15.86;69.94
69359;HTU21D;56520;49.066;8.660;2022-08-23T04:31:45;15.83;70.03
69359;HTU21D;56520;49.066;8.660;2022-08-23T04:34:11;15.80;70.04
69359;HTU21D;56520;49.066;8.660;2022-08-23T04:36:40;15.78;70.11
69359;HTU21D;56520;49.066;8.660;2022-08-23T04:39:09;15.80;70.26
69359;HTU21D;56520;49.066;8.660;2022-08-23T04:41:34;15.78;70.45
69359;HTU21D;56520;49.066;8.660;2022-08-23T04:44:19;15.77;70.61
69359;HTU21D;56520;49.066;8.660;2022-08-23T04:46:45;15.77;70.77
69359;HTU21D;56520;49.066;8.660;2022-08-23T04:49:13;15.78;70.68
69359;HTU21D;56520;49.066;8.660;2022-08-23T04:51:39;15.75;70.68
69359;HTU21D;56520;49.066;8.660;2022-08-23T04:54:05;15.74;70.69
69359;HTU21D;56520;49.066;8.660;2022-08-23T04:56:32;15.72;70.77
69359;HTU21D;56520;49.066;8.660;2022-08-23T04:58:58;15.71;70.74
69359;HTU21D;56520;49.066;8.660;2022-08-23T05:01:23;15.70;70.68
69359;HTU21D;56520;49.066;8.660;2022-08-23T05:03:50;15.70;70.71
69359;HTU21D;56520;49.066;8.660;2022-08-23T05:06:15;15.70;70.64
69359;HTU21D;56520;49.066;8.660;2022-08-23T05:08:41;15.69;70.51
69359;HTU21D;56520;49.066;8.660;2022-08-23T05:11:07;15.69;70.73
69359;HTU21D;56520;49.066;8.660;2022-08-23T05:13:33;15.71;70.75
69359;HTU21D;56520;49.066;8.660;2022-08-23T05:15:59;15.71;70.77
69359;HTU21D;56520;49.066;8.660;2022-08-23T05:18:25;15.74;70.97
69359;HTU21D;56520;49.066;8.660;2022-08-23T05:20:52;15.73;71.03
69359;HTU21D;56520;49.066;8.660;2022-08-23T05:23:17;15.76;71.08
69359;HTU21D;56520;49.066;8.660;2022-08-23T05:25:43;15.78;71.19
69359;HTU21D;56520;49.066;8.660;2022-08-23T05:28:32;15.82;71.05
69359;HTU21D;56520;49.066;8.660;2022-08-23T05:31:04;15.86;71.03
69359;HTU21D;56520;49.066;8.660;2022-08-23T05:33:32;15.87;71.10
69359;HTU21D;56520;49.066;8.660;2022-08-23T05:35:58;15.87;71.46
69359;HTU21D;56520;49.066;8.660;2022-08-23T05:38:23;15.96;71.22
69359;HTU21D;56520;49.066;8.660;2022-08-23T05:40:51;16.00;71.14
69359;HTU21D;56520;49.066;8.660;2022-08-23T05:43:21;16.05;71.04
69359;HTU21D;56520;49.066;8.660;2022-08-23T05:45:47;16.05;71.00
69359;HTU21D;56520;49.066;8.660;2022-08-23T05:48:14;16.10;71.03
69359;HTU21D;56520;49.066;8.660;2022-08-23T05:50:40;16.14;71.04
69359;HTU21D;56520;49.066;8.660;2022-08-23T05:53:07;16.19;71.06
69359;HTU21D;56520;49.066;8.660;2022-08-23T05:55:35;16.28;70.97
69359;HTU21D;56520;49.066;8.660;2022-08-23T05:58:00;16.34;70.97
69359;HTU21D;56520;49.066;8.660;2022-08-23T06:00:26;16.40;70.89
69359;HTU21D;56520;49.066;8.660;2022-08-23T06:02:52;16.46;70.83
69359;HTU21D;56520;49.066;8.660;2022-08-23T06:05:17;16.52;70.72
69359;HTU21D;56520;49.066;8.660;2022-08-23T06:07:43;16.61;70.55
69359;HTU21D;56520;49.066;8.660;2022-08-23T06:10:09;16.64;70.41
69359;HTU21D;56520;49.066;8.660;2022-08-23T06:12:35;16.70;70.40
69359;HTU21D;56520;49.066;8.660;2022-08-23T06:15:00;16.75;70.26
69359;HTU21D;56520;49.066;8.660;2022-08-23T06:17:27;16.81;70.10
69359;HTU21D;56520;49.066;8.660;2022-08-23T06:19:53;16.89;69.91
69359;HTU21D;56520;49.066;8.660;2022-08-23T06:22:19;16.98;69.79
69359;HTU21D;56520;49.066;8.660;2022-08-23T06:24:44;17.05;69.69
69359;HTU21D;56520;49.066;8.660;2022-08-23T06:27:11;17.11;69.56
69359;HTU21D;56520;49.066;8.660;2022-08-23T06:29:36;17.19;69.36
69359;HTU21D;56520;49.066;8.660;2022-08-23T06:32:03;17.29;69.21
69359;HTU21D;56520;49.066;8.660;2022-08-23T06:34:31;17.35;69.18
69359;HTU21D;56520;49.066;8.660;2022-08-23T06:37:03;17.44;69.10
69359;HTU21D;56520;49.066;8.660;2022-08-23T06:39:29;17.53;68.92
69359;HTU21D;56520;49.066;8.660;2022-08-23T06:42:01;17.62;68.71
69359;HTU21D;56520;49.066;8.660;2022-08-23T06:44:27;17.75;68.51
69359;HTU21D;56520;49.066;8.660;2022-08-23T06:46:53;17.87;68.23
69359;HTU21D;56520;49.066;8.660;2022-08-23T06:49:21;17.96;67.94
69359;HTU21D;56520;49.066;8.660;2022-08-23T06:51:51;18.09;67.55
69359;HTU21D;56520;49.066;8.660;2022-08-23T06:54:20;18.23;67.23
69359;HTU21D;56520;49.066;8.660;2022-08-23T06:56:46;18.35;67.02
69359;HTU21D;56520;49.066;8.660;2022-08-23T06:59:14;18.46;66.90
69359;HTU21D;56520;49.066;8.660;2022-08-23T07:01:45;18.57;66.69
69359;HTU21D;56520;49.066;8.660;2022-08-23T07:04:14;18.69;66.39
69359;HTU21D;56520;49.066;8.660;2022-08-23T07:06:40;18.81;66.26
69359;HTU21D;56520;49.066;8.660;2022-08-23T07:09:06;18.91;66.23
69359;HTU21D;56520;49.066;8.660;2022-08-23T07:11:32;19.01;66.01
69359;HTU21D;56520;49.066;8.660;2022-08-23T07:13:59;19.13;65.75
69359;HTU21D;56520;49.066;8.660;2022-08-23T07:16:34;19.26;65.39
69359;HTU21D;56520;49.066;8.660;2022-08-23T07:18:59;19.38;64.11
69359;HTU21D;56520;49.066;8.660;2022-08-23T07:21:25;19.53;64.14
69359;HTU21D;56520;49.066;8.660;2022-08-23T07:23:50;19.61;63.79
69359;HTU21D;56520;49.066;8.660;2022-08-23T07:26:17;19.73;62.20
69359;HTU21D;56520;49.066;8.660;2022-08-23T07:28:43;19.85;62.38
69359;HTU21D;56520;49.066;8.660;2022-08-23T07:31:15;20.01;62.13
69359;HTU21D;56520;49.066;8.660;2022-08-23T07:33:42;20.13;62.09
69359;HTU21D;56520;49.066;8.660;2022-08-23T07:36:09;20.27;60.50
69359;HTU21D;56520;49.066;8.660;2022-08-23T07:38:35;20.41;59.55
69359;HTU21D;56520;49.066;8.660;2022-08-23T07:41:03;20.57;60.39
69359;HTU21D;56520;49.066;8.660;2022-08-23T07:43:33;20.71;60.34
69359;HTU21D;56520;49.066;8.660;2022-08-23T07:45:59;20.87;60.08
69359;HTU21D;56520;49.066;8.660;2022-08-23T07:48:25;20.99;59.39
69359;HTU21D;56520;49.066;8.660;2022-08-23T07:50:59;21.14;58.67
69359;HTU21D;56520;49.066;8.660;2022-08-23T07:53:25;21.29;58.62
69359;HTU21D;56520;49.066;8.660;2022-08-23T07:55:51;21.39;57.92
69359;HTU21D;56520;49.066;8.660;2022-08-23T07:58:18;21.53;57.75
69359;HTU21D;56520;49.066;8.660;2022-08-23T08:00:44;21.73;57.57
69359;HTU21D;56520;49.066;8.660;2022-08-23T08:03:11;21.87;57.60
69359;HTU21D;56520;49.066;8.660;2022-08-23T08:05:38;21.99;57.41
69359;HTU21D;56520;49.066;8.660;2022-08-23T08:08:04;22.12;56.25
69359;HTU21D;56520;49.066;8.660;2022-08-23T08:10:30;22.27;56.77
69359;HTU21D;56520;49.066;8.660;2022-08-23T08:12:56;22.40;56.58
69359;HTU21D;56520;49.066;8.660;2022-08-23T08:15:22;22.52;56.43
69359;HTU21D;56520;49.066;8.660;2022-08-23T08:17:49;22.65;56.25
69359;HTU21D;56520;49.066;8.660;2022-08-23T08:20:15;22.77;55.13
69359;HTU21D;56520;49.066;8.660;2022-08-23T08:22:41;22.87;55.33
69359;HTU21D;56520;49.066;8.660;2022-08-23T08:25:08;23.00;54.18
69359;HTU21D;56520;49.066;8.660;2022-08-23T08:27:34;23.21;54.05
69359;HTU21D;56520;49.066;8.660;2022-08-23T08:29:59;23.30;53.59
69359;HTU21D;56520;49.066;8.660;2022-08-23T08:32:24;23.46;53.56
69359;HTU21D;56520;49.066;8.660;2022-08-23T08:34:50;23.55;53.68
69359;HTU21D;56520;49.066;8.660;2022-08-23T08:37:15;23.65;52.98
69359;HTU21D;56520;49.066;8.660;2022-08-23T08:39:41;23.75;52.08
69359;HTU21D;56520;49.066;8.660;2022-08-23T08:45:17;24.11;52.20
69359;HTU21D;56520;49.066;8.660;2022-08-23T08:48:03;24.35;51.44
69359;HTU21D;56520;49.066;8.660;2022-08-23T08:50:42;24.57;51.26
69359;HTU21D;56520;49.066;8.660;2022-08-23T08:53:16;24.61;50.80
69359;HTU21D;56520;49.066;8.660;2022-08-23T08:55:52;24.74;50.72
69359;HTU21D;56520;49.066;8.660;2022-08-23T09:01:08;24.99;48.71
69359;HTU21D;56520;49.066;8.660;2022-08-23T09:03:34;25.12;48.78
69359;HTU21D;56520;49.066;8.660;2022-08-23T09:06:17;25.29;46.85
69359;HTU21D;56520;49.066;8.660;2022-08-23T09:09:26;25.36;45.38
69359;HTU21D;56520;49.066;8.660;2022-08-23T09:17:06;25.69;44.95
69359;HTU21D;56520;49.066;8.660;2022-08-23T09:19:35;25.90;44.82
69359;HTU21D;56520;49.066;8.660;2022-08-23T09:22:06;26.17;44.92
69359;HTU21D;56520;49.066;8.660;2022-08-23T09:24:35;26.35;44.80
69359;HTU21D;56520;49.066;8.660;2022-08-23T09:27:02;26.45;43.80
69359;HTU21D;56520;49.066;8.660;2022-08-23T09:29:28;26.70;44.22
69359;HTU21D;56520;49.066;8.660;2022-08-23T09:31:57;26.85;41.29
69359;HTU21D;56520;49.066;8.660;2022-08-23T09:42:35;28.02;40.57
69359;HTU21D;56520;49.066;8.660;2022-08-23T09:45:34;28.28;40.60
69359;HTU21D;56520;49.066;8.660;2022-08-23T09:47:59;28.57;39.91
69359;HTU21D;56520;49.066;8.660;2022-08-23T09:50:28;28.90;39.14
69359;HTU21D;56520;49.066;8.660;2022-08-23T09:53:06;29.27;38.41
69359;HTU21D;56520;49.066;8.660;2022-08-23T09:55:39;29.49;37.75
69359;HTU21D;56520;49.066;8.660;2022-08-23T10:01:13;29.86;37.24
69359;HTU21D;56520;49.066;8.660;2022-08-23T10:03:42;30.02;36.17
69359;HTU21D;56520;49.066;8.660;2022-08-23T10:06:11;30.10;36.08
69359;HTU21D;56520;49.066;8.660;2022-08-23T10:08:51;30.12;35.76
69359;HTU21D;56520;49.066;8.660;2022-08-23T10:11:24;30.28;36.07
69359;HTU21D;56520;49.066;8.660;2022-08-23T10:13:51;30.31;37.11
69359;HTU21D;56520;49.066;8.660;2022-08-23T10:16:36;30.27;34.15
69359;HTU21D;56520;49.066;8.660;2022-08-23T10:19:17;30.03;35.05
69359;HTU21D;56520;49.066;8.660;2022-08-23T10:24:18;30.18;36.63
69359;HTU21D;56520;49.066;8.660;2022-08-23T10:26:54;30.62;36.34
69359;HTU21D;56520;49.066;8.660;2022-08-23T10:29:36;30.66;34.37
69359;HTU21D;56520;49.066;8.660;2022-08-23T10:35:18;30.77;33.75
69359;HTU21D;56520;49.066;8.660;2022-08-23T10:43:32;31.28;32.96
69359;HTU21D;56520;49.066;8.660;2022-08-23T10:46:01;31.41;32.18
69359;HTU21D;56520;49.066;8.660;2022-08-23T10:48:36;31.43;33.17
69359;HTU21D;56520;49.066;8.660;2022-08-23T10:51:10;31.68;32.67
69359;HTU21D;56520;49.066;8.660;2022-08-23T10:53:47;31.89;31.41
69359;HTU21D;56520;49.066;8.660;2022-08-23T10:56:16;31.89;30.04
69359;HTU21D;56520;49.066;8.660;2022-08-23T10:59:22;31.88;30.29
69359;HTU21D;56520;49.066;8.660;2022-08-23T11:01:59;31.85;29.03
69359;HTU21D;56520;49.066;8.660;2022-08-23T11:09:54;32.01;29.61
69359;HTU21D;56520;49.066;8.660;2022-08-23T11:20:10;32.64;26.78
69359;HTU21D;56520;49.066;8.660;2022-08-23T11:27:45;33.36;25.68
69359;HTU21D;56520;49.066;8.660;2022-08-23T11:33:30;33.44;23.18
69359;HTU21D;56520;49.066;8.660;2022-08-23T11:41:33;33.51;24.17
69359;HTU21D;56520;49.066;8.660;2022-08-23T11:46:31;33.61;24.59
69359;HTU21D;56520;49.066;8.660;2022-08-23T11:51:51;33.55;24.08
69359;HTU21D;56520;49.066;8.660;2022-08-23T11:54:30;33.77;22.67
69359;HTU21D;56520;49.066;8.660;2022-08-23T12:05:21;33.56;23.21
69359;HTU21D;56520;49.066;8.660;2022-08-23T12:16:05;33.38;24.20
69359;HTU21D;56520;49.066;8.660;2022-08-23T12:18:34;33.29;24.58
69359;HTU21D;56520;49.066;8.660;2022-08-23T12:21:02;33.09;24.53
69359;HTU21D;56520;49.066;8.660;2022-08-23T12:23:29;33.02;24.63
69359;HTU21D;56520;49.066;8.660;2022-08-23T12:26:29;32.99;24.30
69359;HTU21D;56520;49.066;8.660;2022-08-23T12:29:08;32.73;24.74
69359;HTU21D;56520;49.066;8.660;2022-08-23T12:31:46;32.57;25.48
69359;HTU21D;56520;49.066;8.660;2022-08-23T12:34:48;32.28;25.10
69359;HTU21D;56520;49.066;8.660;2022-08-23T12:37:52;31.59;25.67
69359;HTU21D;56520;49.066;8.660;2022-08-23T12:40:29;31.33;26.48
69359;HTU21D;56520;49.066;8.660;2022-08-23T12:45:51;32.00;25.52
69359;HTU21D;56520;49.066;8.660;2022-08-23T12:48:22;32.12;25.59
69359;HTU21D;56520;49.066;8.660;2022-08-23T12:53:31;32.57;24.75
69359;HTU21D;56520;49.066;8.660;2022-08-23T12:56:06;32.69;24.61
69359;HTU21D;56520;49.066;8.660;2022-08-23T12:58:35;32.71;24.59
69359;HTU21D;56520;49.066;8.660;2022-08-23T13:01:05;32.66;23.85
69359;HTU21D;56520;49.066;8.660;2022-08-23T13:03:38;32.70;24.43
69359;HTU21D;56520;49.066;8.660;2022-08-23T13:06:07;32.74;23.77
69359;HTU21D;56520;49.066;8.660;2022-08-23T13:11:07;32.92;23.44
69359;HTU21D;56520;49.066;8.660;2022-08-23T13:13:33;33.12;23.51
69359;HTU21D;56520;49.066;8.660;2022-08-23T13:16:02;33.31;22.76
69359;HTU21D;56520;49.066;8.660;2022-08-23T13:18:46;33.32;22.02
69359;HTU21D;56520;49.066;8.660;2022-08-23T13:23:47;33.57;22.83
69359;HTU21D;56520;49.066;8.660;2022-08-23T13:34:43;33.60;21.69
69359;HTU21D;56520;49.066;8.660;2022-08-23T13:37:41;33.60;22.46
69359;HTU21D;56520;49.066;8.660;2022-08-23T13:40:20;33.73;21.46
69359;HTU21D;56520;49.066;8.660;2022-08-23T13:42:50;33.46;21.60
69359;HTU21D;56520;49.066;8.660;2022-08-23T13:45:35;33.32;22.17
69359;HTU21D;56520;49.066;8.660;2022-08-23T13:48:08;33.58;21.70
69359;HTU21D;56520;49.066;8.660;2022-08-23T13:50:36;33.79;22.19
69359;HTU21D;56520;49.066;8.660;2022-08-23T13:53:04;33.91;21.90
69359;HTU21D;56520;49.066;8.660;2022-08-23T13:55:30;33.90;21.69
69359;HTU21D;56520;49.066;8.660;2022-08-23T13:57:58;34.05;21.50
69359;HTU21D;56520;49.066;8.660;2022-08-23T14:00:24;34.20;21.56
69359;HTU21D;56520;49.066;8.660;2022-08-23T14:02:51;34.09;21.02
69359;HTU21D;56520;49.066;8.660;2022-08-23T14:05:20;34.06;21.31
69359;HTU21D;56520;49.066;8.660;2022-08-23T14:07:48;34.33;21.17
69359;HTU21D;56520;49.066;8.660;2022-08-23T14:10:19;34.49;20.53
69359;HTU21D;56520;49.066;8.660;2022-08-23T14:12:46;34.55;20.53
69359;HTU21D;56520;49.066;8.660;2022-08-23T14:15:12;34.57;20.37
69359;HTU21D;56520;49.066;8.660;2022-08-23T14:17:46;34.50;20.47
69359;HTU21D;56520;49.066;8.660;2022-08-23T14:20:13;34.05;19.73
69359;HTU21D;56520;49.066;8.660;2022-08-23T14:22:39;33.72;20.69
69359;HTU21D;56520;49.066;8.660;2022-08-23T14:25:05;33.61;20.89
69359;HTU21D;56520;49.066;8.660;2022-08-23T14:27:32;33.52;21.29
69359;HTU21D;56520;49.066;8.660;2022-08-23T14:29:57;33.53;21.60
69359;HTU21D;56520;49.066;8.660;2022-08-23T14:32:23;33.72;21.33
69359;HTU21D;56520;49.066;8.660;2022-08-23T14:34:48;33.64;20.65
69359;HTU21D;56520;49.066;8.660;2022-08-23T14:37:14;33.45;21.08
69359;HTU21D;56520;49.066;8.660;2022-08-23T14:39:40;33.26;20.86
69359;HTU21D;56520;49.066;8.660;2022-08-23T14:42:06;33.27;21.38
69359;HTU21D;56520;49.066;8.660;2022-08-23T14:44:32;33.46;21.44
69359;HTU21D;56520;49.066;8.660;2022-08-23T14:46:57;33.57;21.28
69359;HTU21D;56520;49.066;8.660;2022-08-23T14:49:23;33.57;20.34
69359;HTU21D;56520;49.066;8.660;2022-08-23T14:51:49;33.28;20.47
69359;HTU21D;56520;49.066;8.660;2022-08-23T14:54:20;32.99;21.21
69359;HTU21D;56520;49.066;8.660;2022-08-23T14:56:46;33.02;21.39
69359;HTU21D;56520;49.066;8.660;2022-08-23T14:59:12;33.19;21.45
69359;HTU21D;56520;49.066;8.660;2022-08-23T15:01:38;33.46;20.89
69359;HTU21D;56520;49.066;8.660;2022-08-23T15:04:04;33.63;20.73
69359;HTU21D;56520;49.066;8.660;2022-08-23T15:06:30;33.78;21.06
69359;HTU21D;56520;49.066;8.660;2022-08-23T15:08:55;33.82;20.40
69359;HTU21D;56520;49.066;8.660;2022-08-23T15:11:21;33.64;20.34
69359;HTU21D;56520;49.066;8.660;2022-08-23T15:13:46;33.35;20.37
69359;HTU21D;56520;49.066;8.660;2022-08-23T15:16:15;33.19;21.04
69359;HTU21D;56520;49.066;8.660;2022-08-23T15:18:44;33.14;20.89
69359;HTU21D;56520;49.066;8.660;2022-08-23T15:21:11;33.01;20.97
69359;HTU21D;56520;49.066;8.660;2022-08-23T15:23:36;32.97;21.45
69359;HTU21D;56520;49.066;8.660;2022-08-23T15:26:02;33.14;21.64
69359;HTU21D;56520;49.066;8.660;2022-08-23T15:28:28;33.27;21.32
69359;HTU21D;56520;49.066;8.660;2022-08-23T15:30:54;33.19;20.97
69359;HTU21D;56520;49.066;8.660;2022-08-23T15:33:19;33.16;21.21
69359;HTU21D;56520;49.066;8.660;2022-08-23T15:35:49;33.05;20.91
69359;HTU21D;56520;49.066;8.660;2022-08-23T15:38:17;32.92;21.53
69359;HTU21D;56520;49.066;8.660;2022-08-23T15:40:44;33.03;21.93
69359;HTU21D;56520;49.066;8.660;2022-08-23T15:43:10;33.17;21.79
69359;HTU21D;56520;49.066;8.660;2022-08-23T15:45:36;33.22;21.73
69359;HTU21D;56520;49.066;8.660;2022-08-23T15:48:07;33.21;21.66
69359;HTU21D;56520;49.066;8.660;2022-08-23T15:50:35;33.18;21.81
69359;HTU21D;56520;49.066;8.660;2022-08-23T15:53:00;33.04;21.25
69359;HTU21D;56520;49.066;8.660;2022-08-23T15:55:31;32.92;21.60
69359;HTU21D;56520;49.066;8.660;2022-08-23T15:57:57;32.86;21.31
69359;HTU21D;56520;49.066;8.660;2022-08-23T16:00:24;32.74;21.87
69359;HTU21D;56520;49.066;8.660;2022-08-23T16:02:51;32.75;21.94
69359;HTU21D;56520;49.066;8.660;2022-08-23T16:05:18;32.64;21.60
69359;HTU21D;56520;49.066;8.660;2022-08-23T16:07:43;32.55;22.08
69359;HTU21D;56520;49.066;8.660;2022-08-23T16:10:11;32.48;22.18
69359;HTU21D;56520;49.066;8.660;2022-08-23T16:12:38;32.45;22.26
69359;HTU21D;56520;49.066;8.660;2022-08-23T16:15:04;32.46;22.21
69359;HTU21D;56520;49.066;8.660;2022-08-23T16:17:30;32.38;22.11
69359;HTU21D;56520;49.066;8.660;2022-08-23T16:19:55;32.30;22.53
69359;HTU21D;56520;49.066;8.660;2022-08-23T16:22:21;32.27;22.61
69359;HTU21D;56520;49.066;8.660;2022-08-23T16:24:46;32.25;22.55
69359;HTU21D;56520;49.066;8.660;2022-08-23T16:27:12;32.14;22.69
69359;HTU21D;56520;49.066;8.660;2022-08-23T16:29:37;32.03;22.88
69359;HTU21D;56520;49.066;8.660;2022-08-23T16:32:06;31.93;23.10
69359;HTU21D;56520;49.066;8.660;2022-08-23T16:34:31;31.78;23.07
69359;HTU21D;56520;49.066;8.660;2022-08-23T16:36:59;31.67;23.22
69359;HTU21D;56520;49.066;8.660;2022-08-23T16:39:27;31.58;23.47
69359;HTU21D;56520;49.066;8.660;2022-08-23T16:41:53;31.51;23.49
69359;HTU21D;56520;49.066;8.660;2022-08-23T16:44:19;31.41;23.32
69359;HTU21D;56520;49.066;8.660;2022-08-23T16:46:45;31.31;23.35
69359;HTU21D;56520;49.066;8.660;2022-08-23T16:49:12;31.16;23.45
69359;HTU21D;56520;49.066;8.660;2022-08-23T16:51:38;31.00;23.46
69359;HTU21D;56520;49.066;8.660;2022-08-23T16:54:04;30.91;23.82
69359;HTU21D;56520;49.066;8.660;2022-08-23T16:56:30;30.81;24.08
69359;HTU21D;56520;49.066;8.660;2022-08-23T16:58:56;30.66;24.06
69359;HTU21D;56520;49.066;8.660;2022-08-23T17:01:22;30.54;24.08
69359;HTU21D;56520;49.066;8.660;2022-08-23T17:03:47;30.44;24.45
69359;HTU21D;56520;49.066;8.660;2022-08-23T17:06:13;30.33;24.36
69359;HTU21D;56520;49.066;8.660;2022-08-23T17:08:39;30.24;24.66